sensor_id;sensor_type;location;lat;lon;timestamp;P1;durP1;ratioP1;P2;durP2;ratioP2
16735;SDS011;17990;49.548;9.730;2023-03-04T00:01:30;31.83;;;13.10;;
16735;SDS011;17990;49.548;9.730;2023-03-04T00:03:58;28.83;;;12.57;;
16735;SDS011;17990;49.548;9.730;2023-03-04T00:06:25;27.50;;;13.77;;
16735;SDS011;17990;49.548;9.730;2023-03-04T00:08:52;32.40;;;13.87;;
16735;SDS011;17990;49.548;9.730;2023-03-04T00:11:19;33.50;;;15.87;;
16735;SDS011;17990;49.548;9.730;2023-03-04T00:13:46;28.30;;;14.50;;
16735;SDS011;17990;49.548;9.730;2023-03-04T00:16:15;30.37;;;13.27;;
16735;SDS011;17990;49.548;9.730;2023-03-04T00:18:42;28.57;;;14.13;;
16735;SDS011;17990;49.548;9.730;2023-03-04T00:21:09;25.87;;;12.70;;
16735;SDS011;17990;49.548;9.730;2023-03-04T00:23:36;27.57;;;13.23;;
16735;SDS011;17990;49.548;9.730;2023-03-04T00:26:05;30.57;;;13.80;;
16735;SDS011;17990;49.548;9.730;2023-03-04T00:28:33;24.97;;;12.60;;
16735;SDS011;17990;49.548;9.730;2023-03-04T00:31:00;27.10;;;11.90;;
16735;SDS011;17990;49.548;9.730;2023-03-04T00:33:29;27.57;;;13.77;;
16735;SDS011;17990;49.548;9.730;2023-03-04T00:35:56;27.00;;;12.93;;
16735;SDS011;17990;49.548;9.730;2023-03-04T00:38:23;26.47;;;12.67;;
16735;SDS011;17990;49.548;9.730;2023-03-04T00:40:51;27.80;;;12.60;;
16735;SDS011;17990;49.548;9.730;2023-03-04T00:43:18;27.50;;;12.83;;
16735;SDS011;17990;49.548;9.730;2023-03-04T00:45:46;29.53;;;13.47;;
16735;SDS011;17990;49.548;9.730;2023-03-04T00:48:13;26.17;;;12.17;;
16735;SDS011;17990;49.548;9.730;2023-03-04T00:50:42;27.07;;;12.83;;
16735;SDS011;17990;49.548;9.730;2023-03-04T00:53:09;28.10;;;12.80;;
16735;SDS011;17990;49.548;9.730;2023-03-04T00:55:36;26.30;;;12.10;;
16735;SDS011;17990;49.548;9.730;2023-03-04T00:58:03;25.43;;;12.70;;
16735;SDS011;17990;49.548;9.730;2023-03-04T01:00:31;26.90;;;12.47;;
16735;SDS011;17990;49.548;9.730;2023-03-04T01:02:58;26.90;;;12.90;;
16735;SDS011;17990;49.548;9.730;2023-03-04T01:05:25;25.23;;;12.03;;
16735;SDS011;17990;49.548;9.730;2023-03-04T01:07:53;29.23;;;12.97;;
16735;SDS011;17990;49.548;9.730;2023-03-04T01:10:21;32.10;;;12.93;;
16735;SDS011;17990;49.548;9.730;2023-03-04T01:12:48;27.53;;;13.67;;
16735;SDS011;17990;49.548;9.730;2023-03-04T01:15:15;39.43;;;15.93;;
16735;SDS011;17990;49.548;9.730;2023-03-04T01:17:42;36.10;;;14.60;;
16735;SDS011;17990;49.548;9.730;2023-03-04T01:20:10;35.33;;;15.07;;
16735;SDS011;17990;49.548;9.730;2023-03-04T01:22:38;26.17;;;12.10;;
16735;SDS011;17990;49.548;9.730;2023-03-04T01:25:07;34.20;;;13.93;;
16735;SDS011;17990;49.548;9.730;2023-03-04T01:27:34;27.70;;;12.10;;
16735;SDS011;17990;49.548;9.730;2023-03-04T01:30:02;27.57;;;12.33;;
16735;SDS011;17990;49.548;9.730;2023-03-04T01:32:30;27.47;;;13.03;;
16735;SDS011;17990;49.548;9.730;2023-03-04T01:34:57;29.47;;;13.33;;
16735;SDS011;17990;49.548;9.730;2023-03-04T01:37:24;32.73;;;13.47;;
16735;SDS011;17990;49.548;9.730;2023-03-04T01:39:52;27.07;;;12.73;;
16735;SDS011;17990;49.548;9.730;2023-03-04T01:42:21;25.10;;;11.77;;
16735;SDS011;17990;49.548;9.730;2023-03-04T01:44:49;28.63;;;12.13;;
16735;SDS011;17990;49.548;9.730;2023-03-04T01:47:17;28.20;;;12.27;;
16735;SDS011;17990;49.548;9.730;2023-03-04T01:49:45;25.90;;;11.73;;
16735;SDS011;17990;49.548;9.730;2023-03-04T01:52:15;28.47;;;12.10;;
16735;SDS011;17990;49.548;9.730;2023-03-04T01:54:42;27.80;;;11.93;;
16735;SDS011;17990;49.548;9.730;2023-03-04T01:57:14;28.63;;;12.40;;
16735;SDS011;17990;49.548;9.730;2023-03-04T01:59:43;27.73;;;12.53;;
16735;SDS011;17990;49.548;9.730;2023-03-04T02:02:11;25.67;;;11.73;;
16735;SDS011;17990;49.548;9.730;2023-03-04T02:04:39;28.63;;;12.37;;
16735;SDS011;17990;49.548;9.730;2023-03-04T02:07:07;26.43;;;12.27;;
16735;SDS011;17990;49.548;9.730;2023-03-04T02:09:35;25.20;;;11.50;;
16735;SDS011;17990;49.548;9.730;2023-03-04T02:12:02;23.53;;;11.47;;
16735;SDS011;17990;49.548;9.730;2023-03-04T02:14:29;25.93;;;12.23;;
16735;SDS011;17990;49.548;9.730;2023-03-04T02:16:58;26.40;;;10.77;;
16735;SDS011;17990;49.548;9.730;2023-03-04T02:19:34;27.37;;;11.63;;
16735;SDS011;17990;49.548;9.730;2023-03-04T02:22:05;25.83;;;11.07;;
16735;SDS011;17990;49.548;9.730;2023-03-04T02:24:34;24.30;;;11.50;;
16735;SDS011;17990;49.548;9.730;2023-03-04T02:27:05;24.10;;;11.30;;
16735;SDS011;17990;49.548;9.730;2023-03-04T02:29:32;22.57;;;11.03;;
16735;SDS011;17990;49.548;9.730;2023-03-04T02:31:59;23.67;;;10.60;;
16735;SDS011;17990;49.548;9.730;2023-03-04T02:34:28;23.97;;;10.80;;
16735;SDS011;17990;49.548;9.730;2023-03-04T02:36:56;28.90;;;11.40;;
16735;SDS011;17990;49.548;9.730;2023-03-04T02:39:26;25.40;;;11.37;;
16735;SDS011;17990;49.548;9.730;2023-03-04T02:41:56;27.57;;;11.83;;
16735;SDS011;17990;49.548;9.730;2023-03-04T02:44:26;28.37;;;12.20;;
16735;SDS011;17990;49.548;9.730;2023-03-04T02:46:54;25.57;;;11.30;;
16735;SDS011;17990;49.548;9.730;2023-03-04T02:49:22;23.40;;;10.50;;
16735;SDS011;17990;49.548;9.730;2023-03-04T02:51:50;22.83;;;10.80;;
16735;SDS011;17990;49.548;9.730;2023-03-04T02:54:19;33.70;;;12.07;;
16735;SDS011;17990;49.548;9.730;2023-03-04T02:56:48;22.23;;;10.70;;
16735;SDS011;17990;49.548;9.730;2023-03-04T02:59:16;23.77;;;11.10;;
16735;SDS011;17990;49.548;9.730;2023-03-04T03:01:45;28.17;;;11.00;;
16735;SDS011;17990;49.548;9.730;2023-03-04T03:04:12;22.80;;;10.33;;
16735;SDS011;17990;49.548;9.730;2023-03-04T03:06:40;26.90;;;10.67;;
16735;SDS011;17990;49.548;9.730;2023-03-04T03:09:07;25.70;;;11.10;;
16735;SDS011;17990;49.548;9.730;2023-03-04T03:11:34;24.33;;;11.17;;
16735;SDS011;17990;49.548;9.730;2023-03-04T03:14:02;30.30;;;11.70;;
16735;SDS011;17990;49.548;9.730;2023-03-04T03:16:29;24.07;;;11.60;;
16735;SDS011;17990;49.548;9.730;2023-03-04T03:18:58;22.50;;;11.30;;
16735;SDS011;17990;49.548;9.730;2023-03-04T03:21:25;31.23;;;11.60;;
16735;SDS011;17990;49.548;9.730;2023-03-04T03:23:52;20.00;;;10.07;;
16735;SDS011;17990;49.548;9.730;2023-03-04T03:26:19;21.77;;;10.03;;
16735;SDS011;17990;49.548;9.730;2023-03-04T03:28:47;26.97;;;11.93;;
16735;SDS011;17990;49.548;9.730;2023-03-04T03:31:14;28.03;;;12.43;;
16735;SDS011;17990;49.548;9.730;2023-03-04T03:33:41;29.23;;;12.00;;
16735;SDS011;17990;49.548;9.730;2023-03-04T03:36:11;25.07;;;11.30;;
16735;SDS011;17990;49.548;9.730;2023-03-04T03:38:38;23.73;;;10.77;;
16735;SDS011;17990;49.548;9.730;2023-03-04T03:41:05;25.03;;;11.10;;
16735;SDS011;17990;49.548;9.730;2023-03-04T03:43:32;21.70;;;10.60;;
16735;SDS011;17990;49.548;9.730;2023-03-04T03:45:59;24.17;;;11.30;;
16735;SDS011;17990;49.548;9.730;2023-03-04T03:48:27;23.57;;;10.67;;
16735;SDS011;17990;49.548;9.730;2023-03-04T03:50:54;22.23;;;10.53;;
16735;SDS011;17990;49.548;9.730;2023-03-04T03:53:23;26.47;;;10.57;;
16735;SDS011;17990;49.548;9.730;2023-03-04T03:55:50;20.77;;;10.43;;
16735;SDS011;17990;49.548;9.730;2023-03-04T03:58:17;21.00;;;10.47;;
16735;SDS011;17990;49.548;9.730;2023-03-04T04:00:44;22.00;;;9.73;;
16735;SDS011;17990;49.548;9.730;2023-03-04T04:03:11;19.70;;;9.70;;
16735;SDS011;17990;49.548;9.730;2023-03-04T04:05:40;24.90;;;10.67;;
16735;SDS011;17990;49.548;9.730;2023-03-04T04:08:09;19.67;;;10.37;;
16735;SDS011;17990;49.548;9.730;2023-03-04T04:10:39;20.10;;;9.63;;
16735;SDS011;17990;49.548;9.730;2023-03-04T04:13:06;18.77;;;9.23;;
16735;SDS011;17990;49.548;9.730;2023-03-04T04:15:33;21.93;;;9.57;;
16735;SDS011;17990;49.548;9.730;2023-03-04T04:18:00;21.30;;;10.53;;
16735;SDS011;17990;49.548;9.730;2023-03-04T04:20:27;24.57;;;11.00;;
16735;SDS011;17990;49.548;9.730;2023-03-04T04:22:55;28.83;;;11.13;;
16735;SDS011;17990;49.548;9.730;2023-03-04T04:25:22;21.47;;;10.33;;
16735;SDS011;17990;49.548;9.730;2023-03-04T04:27:51;19.20;;;9.70;;
16735;SDS011;17990;49.548;9.730;2023-03-04T04:30:18;22.23;;;10.33;;
16735;SDS011;17990;49.548;9.730;2023-03-04T04:32:45;20.93;;;9.47;;
16735;SDS011;17990;49.548;9.730;2023-03-04T04:35:12;20.50;;;9.63;;
16735;SDS011;17990;49.548;9.730;2023-03-04T04:37:40;18.83;;;9.27;;
16735;SDS011;17990;49.548;9.730;2023-03-04T04:40:07;21.43;;;10.17;;
16735;SDS011;17990;49.548;9.730;2023-03-04T04:42:35;21.77;;;9.37;;
16735;SDS011;17990;49.548;9.730;2023-03-04T04:45:04;22.27;;;10.33;;
16735;SDS011;17990;49.548;9.730;2023-03-04T04:47:32;22.30;;;10.70;;
16735;SDS011;17990;49.548;9.730;2023-03-04T04:49:59;22.50;;;11.03;;
16735;SDS011;17990;49.548;9.730;2023-03-04T04:52:27;24.43;;;11.03;;
16735;SDS011;17990;49.548;9.730;2023-03-04T04:54:54;25.03;;;12.17;;
16735;SDS011;17990;49.548;9.730;2023-03-04T04:57:21;22.10;;;10.53;;
16735;SDS011;17990;49.548;9.730;2023-03-04T04:59:48;20.53;;;10.53;;
16735;SDS011;17990;49.548;9.730;2023-03-04T05:02:17;20.33;;;9.83;;
16735;SDS011;17990;49.548;9.730;2023-03-04T05:04:44;19.67;;;10.20;;
16735;SDS011;17990;49.548;9.730;2023-03-04T05:07:11;25.67;;;10.30;;
16735;SDS011;17990;49.548;9.730;2023-03-04T05:09:38;20.93;;;10.57;;
16735;SDS011;17990;49.548;9.730;2023-03-04T05:12:05;24.57;;;11.50;;
16735;SDS011;17990;49.548;9.730;2023-03-04T05:14:33;22.00;;;10.20;;
16735;SDS011;17990;49.548;9.730;2023-03-04T05:17:00;21.30;;;10.77;;
16735;SDS011;17990;49.548;9.730;2023-03-04T05:19:28;20.93;;;9.90;;
16735;SDS011;17990;49.548;9.730;2023-03-04T05:21:55;24.10;;;11.37;;
16735;SDS011;17990;49.548;9.730;2023-03-04T05:24:23;25.08;;;13.80;;
16735;SDS011;17990;49.548;9.730;2023-03-04T05:26:50;27.57;;;11.93;;
16735;SDS011;17990;49.548;9.730;2023-03-04T05:29:17;22.93;;;10.33;;
16735;SDS011;17990;49.548;9.730;2023-03-04T05:31:44;22.83;;;11.17;;
16735;SDS011;17990;49.548;9.730;2023-03-04T05:34:11;20.87;;;10.43;;
16735;SDS011;17990;49.548;9.730;2023-03-04T05:36:40;20.87;;;10.13;;
16735;SDS011;17990;49.548;9.730;2023-03-04T05:39:07;25.43;;;11.13;;
16735;SDS011;17990;49.548;9.730;2023-03-04T05:41:34;23.60;;;10.47;;
16735;SDS011;17990;49.548;9.730;2023-03-04T05:44:02;21.63;;;10.97;;
16735;SDS011;17990;49.548;9.730;2023-03-04T05:46:29;21.00;;;10.90;;
16735;SDS011;17990;49.548;9.730;2023-03-04T05:48:57;24.70;;;11.50;;
16735;SDS011;17990;49.548;9.730;2023-03-04T05:51:24;23.67;;;11.43;;
16735;SDS011;17990;49.548;9.730;2023-03-04T05:53:52;23.17;;;11.57;;
16735;SDS011;17990;49.548;9.730;2023-03-04T05:56:19;23.70;;;11.93;;
16735;SDS011;17990;49.548;9.730;2023-03-04T05:58:47;23.40;;;11.50;;
16735;SDS011;17990;49.548;9.730;2023-03-04T06:01:14;23.83;;;11.47;;
16735;SDS011;17990;49.548;9.730;2023-03-04T06:03:42;25.60;;;12.63;;
16735;SDS011;17990;49.548;9.730;2023-03-04T06:06:12;23.77;;;12.13;;
16735;SDS011;17990;49.548;9.730;2023-03-04T06:08:39;26.23;;;12.37;;
16735;SDS011;17990;49.548;9.730;2023-03-04T06:11:08;22.30;;;11.83;;
16735;SDS011;17990;49.548;9.730;2023-03-04T06:13:35;21.30;;;10.83;;
16735;SDS011;17990;49.548;9.730;2023-03-04T06:16:03;26.23;;;12.10;;
16735;SDS011;17990;49.548;9.730;2023-03-04T06:18:30;24.63;;;12.07;;
16735;SDS011;17990;49.548;9.730;2023-03-04T06:20:57;24.30;;;11.97;;
16735;SDS011;17990;49.548;9.730;2023-03-04T06:23:26;44.03;;;19.50;;
16735;SDS011;17990;49.548;9.730;2023-03-04T06:25:54;26.73;;;12.97;;
16735;SDS011;17990;49.548;9.730;2023-03-04T06:28:24;25.83;;;12.07;;
16735;SDS011;17990;49.548;9.730;2023-03-04T06:30:51;24.20;;;11.30;;
16735;SDS011;17990;49.548;9.730;2023-03-04T06:33:19;25.03;;;12.30;;
16735;SDS011;17990;49.548;9.730;2023-03-04T06:35:46;26.00;;;12.87;;
16735;SDS011;17990;49.548;9.730;2023-03-04T06:38:14;23.60;;;12.07;;
16735;SDS011;17990;49.548;9.730;2023-03-04T06:40:41;22.37;;;11.87;;
16735;SDS011;17990;49.548;9.730;2023-03-04T06:43:09;22.27;;;11.83;;
16735;SDS011;17990;49.548;9.730;2023-03-04T06:45:38;25.03;;;13.53;;
16735;SDS011;17990;49.548;9.730;2023-03-04T06:48:05;27.27;;;12.93;;
16735;SDS011;17990;49.548;9.730;2023-03-04T06:50:33;24.73;;;11.93;;
16735;SDS011;17990;49.548;9.730;2023-03-04T06:53:00;25.07;;;12.50;;
16735;SDS011;17990;49.548;9.730;2023-03-04T06:55:27;25.03;;;11.87;;
16735;SDS011;17990;49.548;9.730;2023-03-04T06:57:54;27.83;;;12.30;;
16735;SDS011;17990;49.548;9.730;2023-03-04T07:00:22;25.93;;;12.23;;
16735;SDS011;17990;49.548;9.730;2023-03-04T07:02:50;24.67;;;12.37;;
16735;SDS011;17990;49.548;9.730;2023-03-04T07:05:17;23.87;;;12.13;;
16735;SDS011;17990;49.548;9.730;2023-03-04T07:07:45;20.87;;;11.20;;
16735;SDS011;17990;49.548;9.730;2023-03-04T07:10:13;23.73;;;12.90;;
16735;SDS011;17990;49.548;9.730;2023-03-04T07:12:40;26.93;;;13.57;;
16735;SDS011;17990;49.548;9.730;2023-03-04T07:15:08;25.03;;;12.63;;
16735;SDS011;17990;49.548;9.730;2023-03-04T07:17:35;21.77;;;11.37;;
16735;SDS011;17990;49.548;9.730;2023-03-04T07:20:04;24.10;;;12.60;;
16735;SDS011;17990;49.548;9.730;2023-03-04T07:22:32;41.20;;;17.83;;
16735;SDS011;17990;49.548;9.730;2023-03-04T07:24:59;212.67;;;78.37;;
16735;SDS011;17990;49.548;9.730;2023-03-04T07:27:26;96.53;;;43.40;;
16735;SDS011;17990;49.548;9.730;2023-03-04T07:29:54;45.97;;;22.20;;
16735;SDS011;17990;49.548;9.730;2023-03-04T07:32:21;31.20;;;16.17;;
16735;SDS011;17990;49.548;9.730;2023-03-04T07:34:49;27.47;;;14.83;;
16735;SDS011;17990;49.548;9.730;2023-03-04T07:37:18;39.17;;;19.43;;
16735;SDS011;17990;49.548;9.730;2023-03-04T07:39:45;29.00;;;13.77;;
16735;SDS011;17990;49.548;9.730;2023-03-04T07:42:12;27.17;;;13.07;;
16735;SDS011;17990;49.548;9.730;2023-03-04T07:44:39;28.57;;;13.47;;
16735;SDS011;17990;49.548;9.730;2023-03-04T07:47:07;25.57;;;14.17;;
16735;SDS011;17990;49.548;9.730;2023-03-04T07:49:34;31.50;;;16.57;;
16735;SDS011;17990;49.548;9.730;2023-03-04T07:52:02;43.87;;;21.30;;
16735;SDS011;17990;49.548;9.730;2023-03-04T07:54:30;31.53;;;15.63;;
16735;SDS011;17990;49.548;9.730;2023-03-04T07:56:58;44.83;;;21.60;;
16735;SDS011;17990;49.548;9.730;2023-03-04T07:59:25;44.23;;;22.07;;
16735;SDS011;17990;49.548;9.730;2023-03-04T08:01:52;30.47;;;15.13;;
16735;SDS011;17990;49.548;9.730;2023-03-04T08:04:19;26.83;;;13.53;;
16735;SDS011;17990;49.548;9.730;2023-03-04T08:06:46;34.30;;;15.17;;
16735;SDS011;17990;49.548;9.730;2023-03-04T08:09:14;31.70;;;16.50;;
16735;SDS011;17990;49.548;9.730;2023-03-04T08:11:43;28.03;;;15.00;;
16735;SDS011;17990;49.548;9.730;2023-03-04T08:14:11;29.20;;;15.70;;
16735;SDS011;17990;49.548;9.730;2023-03-04T08:16:38;34.87;;;17.40;;
16735;SDS011;17990;49.548;9.730;2023-03-04T08:19:06;40.80;;;17.07;;
16735;SDS011;17990;49.548;9.730;2023-03-04T08:21:33;32.57;;;16.73;;
16735;SDS011;17990;49.548;9.730;2023-03-04T08:24:01;34.30;;;16.93;;
16735;SDS011;17990;49.548;9.730;2023-03-04T08:26:32;37.13;;;18.30;;
16735;SDS011;17990;49.548;9.730;2023-03-04T08:29:04;33.43;;;15.30;;
16735;SDS011;17990;49.548;9.730;2023-03-04T08:31:31;27.60;;;13.43;;
16735;SDS011;17990;49.548;9.730;2023-03-04T08:33:59;25.80;;;13.03;;
16735;SDS011;17990;49.548;9.730;2023-03-04T08:36:27;24.63;;;14.17;;
16735;SDS011;17990;49.548;9.730;2023-03-04T08:38:54;24.13;;;12.83;;
16735;SDS011;17990;49.548;9.730;2023-03-04T08:41:21;26.93;;;13.87;;
16735;SDS011;17990;49.548;9.730;2023-03-04T08:43:50;18.67;;;11.80;;
16735;SDS011;17990;49.548;9.730;2023-03-04T08:46:18;18.43;;;11.13;;
16735;SDS011;17990;49.548;9.730;2023-03-04T08:48:46;16.50;;;9.90;;
16735;SDS011;17990;49.548;9.730;2023-03-04T08:51:13;15.70;;;9.63;;
16735;SDS011;17990;49.548;9.730;2023-03-04T08:53:41;19.43;;;11.03;;
16735;SDS011;17990;49.548;9.730;2023-03-04T08:56:09;31.40;;;12.93;;
16735;SDS011;17990;49.548;9.730;2023-03-04T08:58:37;22.07;;;11.70;;
16735;SDS011;17990;49.548;9.730;2023-03-04T09:01:06;36.97;;;17.67;;
16735;SDS011;17990;49.548;9.730;2023-03-04T09:03:35;24.73;;;13.00;;
16735;SDS011;17990;49.548;9.730;2023-03-04T09:06:03;24.87;;;12.63;;
16735;SDS011;17990;49.548;9.730;2023-03-04T09:08:31;30.67;;;12.23;;
16735;SDS011;17990;49.548;9.730;2023-03-04T09:10:59;24.93;;;11.83;;
16735;SDS011;17990;49.548;9.730;2023-03-04T09:13:27;22.10;;;12.50;;
16735;SDS011;17990;49.548;9.730;2023-03-04T09:15:55;19.57;;;11.03;;
16735;SDS011;17990;49.548;9.730;2023-03-04T09:18:22;21.70;;;11.53;;
16735;SDS011;17990;49.548;9.730;2023-03-04T09:20:52;25.87;;;11.23;;
16735;SDS011;17990;49.548;9.730;2023-03-04T09:23:19;18.90;;;10.60;;
16735;SDS011;17990;49.548;9.730;2023-03-04T09:25:47;20.53;;;10.73;;
16735;SDS011;17990;49.548;9.730;2023-03-04T09:28:14;21.73;;;11.30;;
16735;SDS011;17990;49.548;9.730;2023-03-04T09:30:42;22.40;;;11.07;;
16735;SDS011;17990;49.548;9.730;2023-03-04T09:33:09;18.57;;;11.10;;
16735;SDS011;17990;49.548;9.730;2023-03-04T09:35:37;16.37;;;9.80;;
16735;SDS011;17990;49.548;9.730;2023-03-04T09:38:05;17.93;;;10.17;;
16735;SDS011;17990;49.548;9.730;2023-03-04T09:40:36;20.97;;;10.67;;
16735;SDS011;17990;49.548;9.730;2023-03-04T09:43:05;20.17;;;10.30;;
16735;SDS011;17990;49.548;9.730;2023-03-04T09:45:38;14.47;;;8.93;;
16735;SDS011;17990;49.548;9.730;2023-03-04T09:48:09;13.73;;;8.40;;
16735;SDS011;17990;49.548;9.730;2023-03-04T09:50:43;14.67;;;8.80;;
16735;SDS011;17990;49.548;9.730;2023-03-04T09:53:18;13.37;;;8.33;;
16735;SDS011;17990;49.548;9.730;2023-03-04T09:55:48;16.37;;;8.53;;
16735;SDS011;17990;49.548;9.730;2023-03-04T09:58:21;17.17;;;8.70;;
16735;SDS011;17990;49.548;9.730;2023-03-04T10:00:54;17.33;;;8.47;;
16735;SDS011;17990;49.548;9.730;2023-03-04T10:03:23;13.67;;;8.57;;
16735;SDS011;17990;49.548;9.730;2023-03-04T10:05:56;13.50;;;8.40;;
16735;SDS011;17990;49.548;9.730;2023-03-04T10:08:32;15.17;;;8.17;;
16735;SDS011;17990;49.548;9.730;2023-03-04T10:11:06;16.90;;;9.57;;
16735;SDS011;17990;49.548;9.730;2023-03-04T10:13:37;19.93;;;10.63;;
16735;SDS011;17990;49.548;9.730;2023-03-04T10:16:09;16.57;;;9.33;;
16735;SDS011;17990;49.548;9.730;2023-03-04T10:18:38;14.83;;;8.77;;
16735;SDS011;17990;49.548;9.730;2023-03-04T10:21:11;13.87;;;8.10;;
16735;SDS011;17990;49.548;9.730;2023-03-04T10:23:43;12.93;;;8.83;;
16735;SDS011;17990;49.548;9.730;2023-03-04T10:26:11;14.97;;;8.30;;
16735;SDS011;17990;49.548;9.730;2023-03-04T10:28:40;15.17;;;8.83;;
16735;SDS011;17990;49.548;9.730;2023-03-04T10:31:09;14.13;;;8.43;;
16735;SDS011;17990;49.548;9.730;2023-03-04T10:33:40;11.30;;;8.20;;
16735;SDS011;17990;49.548;9.730;2023-03-04T10:36:13;14.77;;;8.13;;
16735;SDS011;17990;49.548;9.730;2023-03-04T10:38:53;12.33;;;8.07;;
16735;SDS011;17990;49.548;9.730;2023-03-04T10:41:22;15.10;;;7.47;;
16735;SDS011;17990;49.548;9.730;2023-03-04T10:43:59;15.83;;;7.83;;
16735;SDS011;17990;49.548;9.730;2023-03-04T10:46:27;15.93;;;7.80;;
16735;SDS011;17990;49.548;9.730;2023-03-04T10:48:54;12.77;;;7.97;;
16735;SDS011;17990;49.548;9.730;2023-03-04T10:51:22;15.93;;;7.80;;
16735;SDS011;17990;49.548;9.730;2023-03-04T10:53:51;9.83;;;6.80;;
16735;SDS011;17990;49.548;9.730;2023-03-04T10:56:30;12.23;;;7.80;;
16735;SDS011;17990;49.548;9.730;2023-03-04T11:01:59;14.87;;;7.97;;
16735;SDS011;17990;49.548;9.730;2023-03-04T11:04:31;16.00;;;7.40;;
16735;SDS011;17990;49.548;9.730;2023-03-04T11:06:59;12.83;;;7.63;;
16735;SDS011;17990;49.548;9.730;2023-03-04T11:09:28;18.43;;;8.03;;
16735;SDS011;17990;49.548;9.730;2023-03-04T11:11:57;14.53;;;7.73;;
16735;SDS011;17990;49.548;9.730;2023-03-04T11:14:26;11.97;;;7.40;;
16735;SDS011;17990;49.548;9.730;2023-03-04T11:16:56;13.57;;;7.20;;
16735;SDS011;17990;49.548;9.730;2023-03-04T11:19:27;16.17;;;9.10;;
16735;SDS011;17990;49.548;9.730;2023-03-04T11:21:56;20.37;;;11.90;;
16735;SDS011;17990;49.548;9.730;2023-03-04T11:24:25;13.93;;;6.93;;
16735;SDS011;17990;49.548;9.730;2023-03-04T11:26:56;14.80;;;7.73;;
16735;SDS011;17990;49.548;9.730;2023-03-04T11:29:27;17.00;;;8.70;;
16735;SDS011;17990;49.548;9.730;2023-03-04T11:31:59;17.23;;;7.40;;
16735;SDS011;17990;49.548;9.730;2023-03-04T11:34:33;19.00;;;8.10;;
16735;SDS011;17990;49.548;9.730;2023-03-04T11:37:05;19.93;;;7.57;;
16735;SDS011;17990;49.548;9.730;2023-03-04T11:39:37;12.23;;;6.30;;
16735;SDS011;17990;49.548;9.730;2023-03-04T11:42:10;14.87;;;7.67;;
16735;SDS011;17990;49.548;9.730;2023-03-04T11:44:42;13.93;;;6.70;;
16735;SDS011;17990;49.548;9.730;2023-03-04T11:47:16;12.87;;;6.80;;
16735;SDS011;17990;49.548;9.730;2023-03-04T11:50:04;20.00;;;7.10;;
16735;SDS011;17990;49.548;9.730;2023-03-04T11:52:57;12.47;;;7.03;;
16735;SDS011;17990;49.548;9.730;2023-03-04T11:55:40;12.63;;;6.53;;
16735;SDS011;17990;49.548;9.730;2023-03-04T11:58:25;17.20;;;6.83;;
16735;SDS011;17990;49.548;9.730;2023-03-04T12:01:07;12.23;;;6.13;;
16735;SDS011;17990;49.548;9.730;2023-03-04T12:03:41;16.73;;;7.77;;
16735;SDS011;17990;49.548;9.730;2023-03-04T12:06:30;14.47;;;6.67;;
16735;SDS011;17990;49.548;9.730;2023-03-04T12:09:02;15.63;;;7.10;;
16735;SDS011;17990;49.548;9.730;2023-03-04T12:11:41;12.67;;;5.63;;
16735;SDS011;17990;49.548;9.730;2023-03-04T12:14:24;12.17;;;6.20;;
16735;SDS011;17990;49.548;9.730;2023-03-04T12:19:51;13.57;;;5.87;;
16735;SDS011;17990;49.548;9.730;2023-03-04T12:22:32;13.83;;;7.50;;
16735;SDS011;17990;49.548;9.730;2023-03-04T12:25:28;11.57;;;6.37;;
16735;SDS011;17990;49.548;9.730;2023-03-04T12:28:07;15.80;;;6.43;;
16735;SDS011;17990;49.548;9.730;2023-03-04T12:30:50;16.50;;;6.73;;
16735;SDS011;17990;49.548;9.730;2023-03-04T12:33:30;19.63;;;7.60;;
16735;SDS011;17990;49.548;9.730;2023-03-04T12:36:07;14.40;;;6.60;;
16735;SDS011;17990;49.548;9.730;2023-03-04T12:38:42;16.67;;;7.50;;
16735;SDS011;17990;49.548;9.730;2023-03-04T12:41:24;19.00;;;10.53;;
16735;SDS011;17990;49.548;9.730;2023-03-04T12:43:58;14.67;;;6.77;;
16735;SDS011;17990;49.548;9.730;2023-03-04T12:46:36;21.07;;;6.70;;
16735;SDS011;17990;49.548;9.730;2023-03-04T12:49:16;15.20;;;7.10;;
16735;SDS011;17990;49.548;9.730;2023-03-04T12:51:56;12.23;;;6.30;;
16735;SDS011;17990;49.548;9.730;2023-03-04T12:54:29;11.87;;;5.83;;
16735;SDS011;17990;49.548;9.730;2023-03-04T12:56:58;13.63;;;5.30;;
16735;SDS011;17990;49.548;9.730;2023-03-04T12:59:29;11.97;;;5.93;;
16735;SDS011;17990;49.548;9.730;2023-03-04T13:02:03;14.97;;;6.60;;
16735;SDS011;17990;49.548;9.730;2023-03-04T13:04:45;15.90;;;7.93;;
16735;SDS011;17990;49.548;9.730;2023-03-04T13:07:19;15.50;;;5.57;;
16735;SDS011;17990;49.548;9.730;2023-03-04T13:09:51;15.70;;;6.77;;
16735;SDS011;17990;49.548;9.730;2023-03-04T13:12:22;15.00;;;5.30;;
16735;SDS011;17990;49.548;9.730;2023-03-04T13:17:52;14.67;;;5.87;;
16735;SDS011;17990;49.548;9.730;2023-03-04T13:20:21;17.40;;;6.30;;
16735;SDS011;17990;49.548;9.730;2023-03-04T13:22:52;15.60;;;5.97;;
16735;SDS011;17990;49.548;9.730;2023-03-04T13:25:31;14.60;;;5.37;;
16735;SDS011;17990;49.548;9.730;2023-03-04T13:33:46;12.87;;;5.30;;
16735;SDS011;17990;49.548;9.730;2023-03-04T13:36:31;13.63;;;4.80;;
16735;SDS011;17990;49.548;9.730;2023-03-04T13:39:00;13.13;;;5.10;;
16735;SDS011;17990;49.548;9.730;2023-03-04T13:41:30;13.57;;;5.53;;
16735;SDS011;17990;49.548;9.730;2023-03-04T13:43:58;14.80;;;5.50;;
16735;SDS011;17990;49.548;9.730;2023-03-04T13:46:41;11.37;;;4.40;;
16735;SDS011;17990;49.548;9.730;2023-03-04T13:49:15;13.47;;;4.73;;
16735;SDS011;17990;49.548;9.730;2023-03-04T13:51:45;12.63;;;4.83;;
16735;SDS011;17990;49.548;9.730;2023-03-04T13:54:13;12.60;;;4.60;;
16735;SDS011;17990;49.548;9.730;2023-03-04T13:56:41;10.30;;;4.67;;
16735;SDS011;17990;49.548;9.730;2023-03-04T13:59:23;8.40;;;4.67;;
16735;SDS011;17990;49.548;9.730;2023-03-04T14:01:58;12.67;;;4.80;;
16735;SDS011;17990;49.548;9.730;2023-03-04T14:04:27;12.77;;;4.50;;
16735;SDS011;17990;49.548;9.730;2023-03-04T14:06:56;14.47;;;5.40;;
16735;SDS011;17990;49.548;9.730;2023-03-04T14:09:25;11.20;;;4.60;;
16735;SDS011;17990;49.548;9.730;2023-03-04T14:11:54;13.73;;;5.03;;
16735;SDS011;17990;49.548;9.730;2023-03-04T14:14:23;14.13;;;4.67;;
16735;SDS011;17990;49.548;9.730;2023-03-04T14:16:52;14.30;;;5.00;;
16735;SDS011;17990;49.548;9.730;2023-03-04T14:19:23;12.50;;;5.33;;
16735;SDS011;17990;49.548;9.730;2023-03-04T14:21:52;12.70;;;4.90;;
16735;SDS011;17990;49.548;9.730;2023-03-04T14:24:20;13.47;;;5.20;;
16735;SDS011;17990;49.548;9.730;2023-03-04T14:26:48;15.67;;;5.43;;
16735;SDS011;17990;49.548;9.730;2023-03-04T14:29:22;12.27;;;5.43;;
16735;SDS011;17990;49.548;9.730;2023-03-04T14:31:51;17.30;;;5.83;;
16735;SDS011;17990;49.548;9.730;2023-03-04T14:34:25;14.37;;;5.40;;
16735;SDS011;17990;49.548;9.730;2023-03-04T14:36:56;9.93;;;5.03;;
16735;SDS011;17990;49.548;9.730;2023-03-04T14:39:23;12.07;;;5.50;;
16735;SDS011;17990;49.548;9.730;2023-03-04T14:41:52;13.23;;;5.57;;
16735;SDS011;17990;49.548;9.730;2023-03-04T14:44:24;14.90;;;5.23;;
16735;SDS011;17990;49.548;9.730;2023-03-04T14:47:00;13.03;;;5.43;;
16735;SDS011;17990;49.548;9.730;2023-03-04T14:49:34;15.77;;;5.33;;
16735;SDS011;17990;49.548;9.730;2023-03-04T14:52:02;12.57;;;5.10;;
16735;SDS011;17990;49.548;9.730;2023-03-04T14:54:31;13.80;;;5.37;;